createdAt,value
2022-11-09T00:01:22.267Z,11.40
2022-11-09T00:03:55.563Z,11.40
2022-11-09T00:06:23.987Z,11.40
2022-11-09T00:08:52.673Z,11.40
2022-11-09T00:11:21.979Z,11.50
2022-11-09T00:13:52.239Z,11.40
2022-11-09T00:16:22.894Z,11.40
2022-11-09T00:18:51.893Z,11.40
2022-11-09T00:21:22.564Z,11.40
2022-11-09T00:23:51.810Z,11.40
2022-11-09T00:26:21.724Z,11.40
2022-11-09T00:28:52.082Z,11.40
2022-11-09T00:31:22.941Z,11.50
2022-11-09T00:33:52.084Z,11.50
2022-11-09T00:36:25.799Z,11.50
2022-11-09T00:38:57.021Z,11.50
2022-11-09T00:41:25.875Z,11.50
2022-11-09T00:43:55.792Z,11.50
2022-11-09T00:46:28.488Z,11.50
2022-11-09T00:48:57.220Z,11.50
2022-11-09T00:51:25.988Z,11.50
2022-11-09T00:53:55.453Z,11.50
2022-11-09T00:56:24.590Z,11.50
2022-11-09T00:58:56.523Z,11.50
2022-11-09T01:01:24.821Z,11.40
2022-11-09T01:03:56.073Z,11.40
2022-11-09T01:06:26.862Z,11.50
2022-11-09T01:08:55.899Z,11.50
2022-11-09T01:11:24.642Z,11.40
2022-11-09T01:14:00.450Z,11.40
2022-11-09T01:16:29.930Z,11.40
2022-11-09T01:18:59.900Z,11.40
2022-11-09T01:21:29.250Z,11.40
2022-11-09T01:24:01.749Z,11.40
2022-11-09T01:26:30.184Z,11.40
2022-11-09T01:28:59.611Z,11.40
2022-11-09T01:31:27.897Z,11.40
2022-11-09T01:33:56.535Z,11.30
2022-11-09T01:36:26.301Z,11.30
2022-11-09T01:38:54.462Z,11.40
2022-11-09T01:41:26.945Z,11.40
2022-11-09T01:44:10.830Z,11.40
2022-11-09T01:46:49.338Z,11.40
2022-11-09T01:49:33.147Z,11.30
2022-11-09T01:52:08.727Z,11.30
2022-11-09T01:54:42.883Z,11.30
2022-11-09T01:57:16.750Z,11.30
2022-11-09T01:59:54.360Z,11.30
2022-11-09T02:02:23.863Z,11.30
2022-11-09T02:04:59.360Z,11.20
2022-11-09T02:07:27.799Z,11.20
2022-11-09T02:10:05.155Z,11.20
2022-11-09T02:12:36.077Z,11.20
2022-11-09T02:15:11.293Z,11.20
2022-11-09T02:17:41.543Z,11.20
2022-11-09T02:20:13.676Z,11.30
2022-11-09T02:22:42.714Z,11.30
2022-11-09T02:25:13.850Z,11.30
2022-11-09T02:27:44.272Z,11.20
2022-11-09T02:30:15.284Z,11.10
2022-11-09T02:32:43.599Z,11.10
2022-11-09T02:35:13.559Z,11.20
2022-11-09T02:37:49.746Z,11.10
2022-11-09T02:40:25.328Z,11.10
2022-11-09T02:42:55.375Z,11.10
2022-11-09T02:45:23.773Z,11.00
2022-11-09T02:47:51.899Z,10.90
2022-11-09T02:50:21.546Z,10.90
2022-11-09T02:52:49.664Z,10.90
2022-11-09T02:55:18.690Z,11.00
2022-11-09T02:57:47.139Z,11.00
2022-11-09T03:00:17.979Z,11.00
2022-11-09T03:02:46.204Z,10.90
2022-11-09T03:05:16.103Z,10.90
2022-11-09T03:07:47.350Z,10.90
2022-11-09T03:10:16.067Z,10.90
2022-11-09T03:12:44.349Z,10.90
2022-11-09T03:15:15.499Z,10.80
2022-11-09T03:17:46.687Z,10.80
2022-11-09T03:20:15.548Z,10.80
2022-11-09T03:22:44.092Z,10.80
2022-11-09T03:25:13.758Z,10.70
2022-11-09T03:27:42.013Z,10.70
2022-11-09T03:30:11.563Z,10.70
2022-11-09T03:32:40.157Z,10.60
2022-11-09T03:35:10.128Z,10.70
2022-11-09T03:37:38.397Z,10.60
2022-11-09T03:40:08.383Z,10.60
2022-11-09T03:42:38.113Z,10.60
2022-11-09T03:45:07.997Z,10.50
2022-11-09T03:47:36.115Z,10.60
2022-11-09T03:50:04.371Z,10.50
2022-11-09T03:52:32.410Z,10.50
2022-11-09T03:55:00.511Z,10.40
2022-11-09T03:57:28.559Z,10.40
2022-11-09T03:59:58.192Z,10.30
2022-11-09T04:02:26.259Z,10.30
2022-11-09T04:04:54.374Z,10.40
2022-11-09T04:07:22.674Z,10.40
2022-11-09T04:09:50.746Z,10.30
2022-11-09T04:12:18.780Z,10.30
2022-11-09T04:14:46.869Z,10.30
2022-11-09T04:17:16.568Z,10.30
2022-11-09T04:19:44.652Z,10.30
2022-11-09T04:22:12.716Z,10.30
2022-11-09T04:24:40.851Z,10.30
2022-11-09T04:27:08.912Z,10.40
2022-11-09T04:29:37.562Z,10.30
2022-11-09T04:32:05.791Z,10.30
2022-11-09T04:34:35.287Z,10.40
2022-11-09T04:37:03.388Z,10.40
2022-11-09T04:39:31.402Z,10.40
2022-11-09T04:41:59.468Z,10.50
2022-11-09T04:44:29.480Z,10.50
2022-11-09T04:46:57.730Z,10.60
2022-11-09T04:49:25.849Z,10.60
2022-11-09T04:51:55.245Z,10.70
2022-11-09T04:54:23.342Z,10.70
2022-11-09T04:56:51.468Z,10.80
2022-11-09T04:59:19.532Z,10.80
2022-11-09T05:01:47.616Z,10.90
2022-11-09T05:04:15.958Z,10.90
2022-11-09T05:06:44.155Z,10.90
2022-11-09T05:09:13.601Z,10.90
2022-11-09T05:11:41.716Z,10.90
2022-11-09T05:14:09.826Z,10.90
2022-11-09T05:16:37.967Z,10.90
2022-11-09T05:19:06.101Z,10.90
2022-11-09T05:21:34.188Z,10.90
2022-11-09T05:24:02.872Z,10.90
2022-11-09T05:26:34.855Z,10.90
2022-11-09T05:29:05.781Z,10.90
2022-11-09T05:31:34.781Z,10.80
2022-11-09T05:34:03.984Z,10.80
2022-11-09T05:36:33.557Z,10.80
2022-11-09T05:39:02.168Z,10.80
2022-11-09T05:41:30.275Z,10.80
2022-11-09T05:43:59.698Z,10.80
2022-11-09T05:46:27.873Z,10.80
2022-11-09T05:48:55.978Z,10.80
2022-11-09T05:51:24.182Z,10.80
2022-11-09T05:53:52.495Z,10.80
2022-11-09T05:56:20.656Z,10.90
2022-11-09T05:58:48.740Z,10.80
2022-11-09T06:01:20.013Z,10.90
2022-11-09T06:03:48.404Z,10.80
2022-11-09T06:06:18.116Z,10.80
2022-11-09T06:08:46.539Z,10.80
2022-11-09T06:11:21.874Z,10.80
2022-11-09T06:13:52.252Z,10.80
2022-11-09T06:16:21.855Z,10.80
2022-11-09T06:18:49.983Z,10.80
2022-11-09T06:21:18.136Z,10.80
2022-11-09T06:23:46.521Z,10.80
2022-11-09T06:26:15.063Z,10.80
2022-11-09T06:28:45.095Z,10.80
2022-11-09T06:31:20.804Z,10.80
2022-11-09T06:33:50.863Z,10.90
2022-11-09T06:36:18.970Z,10.90
2022-11-09T06:38:50.453Z,10.90
2022-11-09T06:41:18.889Z,10.90
2022-11-09T06:43:47.270Z,10.90
2022-11-09T06:46:17.303Z,10.90
2022-11-09T06:48:46.664Z,10.90
2022-11-09T06:51:18.942Z,10.90
2022-11-09T06:53:47.029Z,10.80
2022-11-09T06:56:15.110Z,10.80
2022-11-09T06:58:43.231Z,10.80
2022-11-09T07:01:13.602Z,10.80
2022-11-09T07:03:41.743Z,10.80
2022-11-09T07:06:12.410Z,10.80
2022-11-09T07:08:42.351Z,10.80
2022-11-09T07:11:12.864Z,10.80
2022-11-09T07:13:41.369Z,10.80
2022-11-09T07:16:11.993Z,10.80
2022-11-09T07:18:40.196Z,10.70
2022-11-09T07:21:13.778Z,10.60
2022-11-09T07:23:44.360Z,10.60
2022-11-09T07:26:12.665Z,10.50
2022-11-09T07:28:41.348Z,10.60
2022-11-09T07:31:10.492Z,10.50
2022-11-09T07:33:39.007Z,10.50
2022-11-09T07:36:08.097Z,10.50
2022-11-09T07:38:36.249Z,10.40
2022-11-09T07:41:05.899Z,10.40
2022-11-09T07:43:33.975Z,10.40
2022-11-09T07:46:05.764Z,10.40
2022-11-09T07:48:34.976Z,10.40
2022-11-09T07:51:03.979Z,10.30
2022-11-09T07:53:32.260Z,10.40
2022-11-09T07:56:02.351Z,10.40
2022-11-09T07:58:32.537Z,10.40
2022-11-09T08:01:00.796Z,10.40
2022-11-09T08:03:28.951Z,10.40
2022-11-09T08:05:58.845Z,10.30
2022-11-09T08:08:27.195Z,10.30
2022-11-09T08:10:58.729Z,10.30
2022-11-09T08:13:27.546Z,10.30
2022-11-09T08:15:57.069Z,10.30
2022-11-09T08:18:25.138Z,10.20
2022-11-09T08:20:53.356Z,10.20
2022-11-09T08:23:22.725Z,10.20
2022-11-09T08:25:52.084Z,10.20
2022-11-09T08:28:20.476Z,10.20
2022-11-09T08:30:59.031Z,10.20
2022-11-09T08:33:29.449Z,10.10
2022-11-09T08:35:58.084Z,10.10
2022-11-09T08:38:26.222Z,10.10
2022-11-09T08:40:59.317Z,10.10
2022-11-09T08:43:27.925Z,10.10
2022-11-09T08:45:57.532Z,10.20
2022-11-09T08:48:25.926Z,10.20
2022-11-09T08:50:55.468Z,10.20
2022-11-09T08:53:24.640Z,10.30
2022-11-09T08:55:53.668Z,10.40
2022-11-09T08:58:23.292Z,10.40
2022-11-09T09:00:52.353Z,10.50
2022-11-09T09:03:21.931Z,10.40
2022-11-09T09:05:50.100Z,10.40
2022-11-09T09:08:21.962Z,10.40
2022-11-09T09:10:50.577Z,10.40
2022-11-09T09:13:22.505Z,10.50
2022-11-09T09:15:51.177Z,10.50
2022-11-09T09:18:21.112Z,10.50
2022-11-09T09:20:49.751Z,10.50
2022-11-09T09:23:18.106Z,10.60
2022-11-09T09:25:55.189Z,10.60
2022-11-09T09:28:26.573Z,10.60
2022-11-09T09:30:54.638Z,10.60
2022-11-09T09:33:24.137Z,10.70
2022-11-09T09:35:52.345Z,10.70
2022-11-09T09:38:20.641Z,10.80
2022-11-09T09:40:59.449Z,10.80
2022-11-09T09:43:42.566Z,10.90
2022-11-09T09:46:26.036Z,11.00
2022-11-09T09:49:02.883Z,11.10
2022-11-09T09:51:39.279Z,11.20
2022-11-09T09:54:16.304Z,11.30
2022-11-09T09:56:47.861Z,11.40
2022-11-09T09:59:26.369Z,11.50
2022-11-09T10:01:57.348Z,11.60
2022-11-09T10:04:36.934Z,11.70
2022-11-09T10:07:16.148Z,11.80
2022-11-09T10:10:17.489Z,11.80
2022-11-09T10:13:27.704Z,11.90
2022-11-09T10:16:08.672Z,11.90
2022-11-09T10:19:00.095Z,12.00
2022-11-09T10:21:41.751Z,12.00
2022-11-09T10:24:28.107Z,12.00
2022-11-09T10:26:59.590Z,12.00
2022-11-09T10:29:35.755Z,12.00
2022-11-09T10:32:15.560Z,12.10
2022-11-09T10:34:56.803Z,12.20
2022-11-09T10:37:33.954Z,12.30
2022-11-09T10:40:12.802Z,12.40
2022-11-09T10:43:03.587Z,12.50
2022-11-09T10:46:04.786Z,12.60
2022-11-09T10:48:53.186Z,12.80
2022-11-09T10:51:43.507Z,12.90
2022-11-09T10:54:35.273Z,12.90
2022-11-09T10:57:25.094Z,13.00
2022-11-09T11:00:17.965Z,13.00
2022-11-09T11:03:17.480Z,13.00
2022-11-09T11:06:08.043Z,13.00
2022-11-09T11:09:16.985Z,13.00
2022-11-09T11:12:17.430Z,13.00
2022-11-09T11:15:15.307Z,13.10
2022-11-09T11:18:04.818Z,13.10
2022-11-09T11:21:18.497Z,13.10
2022-11-09T11:24:18.570Z,13.20
2022-11-09T11:27:14.617Z,13.30
2022-11-09T11:30:11.607Z,13.40
2022-11-09T11:32:59.527Z,13.50
2022-11-09T11:35:57.368Z,13.50
2022-11-09T11:38:56.617Z,13.60
2022-11-09T11:42:12.081Z,13.70
2022-11-09T11:45:39.480Z,13.70
2022-11-09T11:48:50.695Z,13.70
2022-11-09T11:51:49.647Z,13.80
2022-11-09T11:54:54.146Z,13.90
2022-11-09T11:57:57.678Z,13.80
2022-11-09T12:01:01.449Z,13.80
2022-11-09T12:04:05.351Z,13.80
2022-11-09T12:07:18.574Z,13.80
2022-11-09T12:10:31.220Z,13.80
2022-11-09T12:13:49.526Z,13.70
2022-11-09T12:16:50.201Z,13.60
2022-11-09T12:20:00.901Z,13.60
2022-11-09T12:23:05.637Z,13.50
2022-11-09T12:26:17.014Z,13.60
2022-11-09T12:29:18.965Z,13.60
2022-11-09T12:32:23.478Z,14.30
2022-11-09T12:35:25.712Z,15.20
2022-11-09T12:38:21.194Z,15.30
2022-11-09T12:41:17.109Z,16.00
2022-11-09T12:44:16.899Z,15.80
2022-11-09T12:47:15.321Z,15.80
2022-11-09T12:50:02.258Z,15.60
2022-11-09T12:52:52.345Z,16.10
2022-11-09T12:55:48.882Z,16.40
2022-11-09T12:58:38.947Z,16.90
2022-11-09T13:01:52.985Z,17.00
2022-11-09T13:04:58.874Z,16.90
2022-11-09T13:07:50.932Z,16.90
2022-11-09T13:10:40.160Z,16.80
2022-11-09T13:13:27.785Z,16.90
2022-11-09T13:16:35.611Z,16.80
2022-11-09T13:19:54.305Z,16.60
2022-11-09T13:23:02.025Z,16.60
2022-11-09T13:25:53.754Z,16.70
2022-11-09T13:28:58.469Z,16.80
2022-11-09T13:32:24.614Z,16.50
2022-11-09T13:36:13.217Z,16.30
2022-11-09T13:39:32.549Z,16.00
2022-11-09T13:42:31.047Z,15.90
2022-11-09T13:45:32.952Z,15.80
2022-11-09T13:48:43.288Z,15.70
2022-11-09T13:51:47.075Z,15.40
2022-11-09T13:54:36.413Z,15.20
2022-11-09T13:57:25.971Z,15.00
2022-11-09T14:00:23.148Z,14.90
2022-11-09T14:03:22.022Z,14.70
2022-11-09T14:06:13.761Z,15.00
2022-11-09T14:09:04.167Z,15.10
2022-11-09T14:12:20.238Z,15.00
2022-11-09T14:15:38.804Z,14.80
2022-11-09T14:18:41.809Z,14.70
2022-11-09T14:21:45.145Z,14.70
2022-11-09T14:24:34.327Z,14.60
2022-11-09T14:27:22.721Z,14.60
2022-11-09T14:30:21.707Z,14.60
2022-11-09T14:33:36.183Z,14.50
2022-11-09T14:36:22.832Z,14.40
2022-11-09T14:39:27.387Z,14.30
2022-11-09T14:42:21.735Z,14.30
2022-11-09T14:45:16.322Z,14.20
2022-11-09T14:48:03.539Z,14.20
2022-11-09T14:50:53.459Z,14.10
2022-11-09T14:53:44.082Z,14.10
2022-11-09T14:56:33.818Z,14.10
2022-11-09T14:59:29.288Z,14.00
2022-11-09T15:02:19.207Z,14.00
2022-11-09T15:05:08.596Z,14.00
2022-11-09T15:07:55.236Z,14.00
2022-11-09T15:10:42.645Z,14.00
2022-11-09T15:13:34.948Z,14.00
2022-11-09T15:16:28.519Z,14.00
2022-11-09T15:19:25.082Z,14.00
2022-11-09T15:22:42.410Z,14.00
2022-11-09T15:25:34.269Z,13.90
2022-11-09T15:28:27.078Z,13.90
2022-11-09T15:31:18.702Z,13.90
2022-11-09T15:34:24.614Z,13.90
2022-11-09T15:37:24.520Z,13.90
2022-11-09T15:40:15.529Z,13.90
2022-11-09T15:43:02.274Z,13.80
2022-11-09T15:45:49.168Z,13.70
2022-11-09T15:48:36.741Z,13.70
2022-11-09T15:51:24.808Z,13.70
2022-11-09T15:54:12.444Z,13.70
2022-11-09T15:56:58.940Z,13.60
2022-11-09T15:59:47.105Z,13.60
2022-11-09T16:02:33.601Z,13.60
2022-11-09T16:05:20.603Z,13.60
2022-11-09T16:08:09.486Z,13.60
2022-11-09T16:11:07.392Z,13.50
2022-11-09T16:13:57.126Z,13.50
2022-11-09T16:16:43.631Z,13.50
2022-11-09T16:19:30.356Z,13.50
2022-11-09T16:22:17.081Z,13.50
2022-11-09T16:25:05.747Z,13.50
2022-11-09T16:27:52.372Z,13.50
2022-11-09T16:30:44.065Z,13.50
2022-11-09T16:33:33.660Z,13.50
2022-11-09T16:36:25.191Z,13.40
2022-11-09T16:39:16.989Z,13.40
2022-11-09T16:42:09.634Z,13.40
2022-11-09T16:45:05.997Z,13.40
2022-11-09T16:47:57.332Z,13.40
2022-11-09T16:50:44.273Z,13.40
2022-11-09T16:53:31.327Z,13.40
2022-11-09T16:56:18.166Z,13.40
2022-11-09T16:59:06.327Z,13.40
2022-11-09T17:01:54.251Z,13.40
2022-11-09T17:04:54.276Z,13.30
2022-11-09T17:07:43.085Z,13.30
2022-11-09T17:10:29.610Z,13.30
2022-11-09T17:13:16.394Z,13.30
2022-11-09T17:16:08.976Z,13.30
2022-11-09T17:18:56.911Z,13.30
2022-11-09T17:21:43.847Z,13.30
2022-11-09T17:24:31.416Z,13.30
2022-11-09T17:27:18.399Z,13.30
2022-11-09T17:30:07.028Z,13.30
2022-11-09T17:32:58.896Z,13.20
2022-11-09T17:35:45.590Z,13.20
2022-11-09T17:38:33.125Z,13.30
2022-11-09T17:41:21.547Z,13.30
2022-11-09T17:44:08.090Z,13.30
2022-11-09T17:46:54.873Z,13.30
2022-11-09T17:49:42.935Z,13.30
2022-11-09T17:52:29.739Z,13.30
2022-11-09T17:55:17.193Z,13.20
2022-11-09T17:58:04.099Z,13.20
2022-11-09T18:00:51.361Z,13.20
2022-11-09T18:03:39.363Z,13.20
2022-11-09T18:06:29.295Z,13.20
2022-11-09T18:09:40.117Z,13.20
2022-11-09T18:12:23.747Z,13.20
2022-11-09T18:15:11.925Z,13.20
2022-11-09T18:17:58.975Z,13.20
2022-11-09T18:20:45.727Z,13.20
2022-11-09T18:23:35.251Z,13.10
2022-11-09T18:26:22.282Z,13.20
2022-11-09T18:29:08.762Z,13.20
2022-11-09T18:31:55.700Z,13.10
2022-11-09T18:34:42.747Z,13.10
2022-11-09T18:37:29.579Z,13.10
2022-11-09T18:40:19.602Z,13.10
2022-11-09T18:43:06.627Z,13.10
2022-11-09T18:45:58.342Z,13.10
2022-11-09T18:48:45.593Z,13.20
2022-11-09T18:51:32.097Z,13.10
2022-11-09T18:54:18.816Z,13.10
2022-11-09T18:57:06.992Z,13.10
2022-11-09T18:59:53.797Z,13.10
2022-11-09T19:02:40.734Z,13.10
2022-11-09T19:05:27.689Z,13.10
2022-11-09T19:08:14.442Z,13.10
2022-11-09T19:11:07.111Z,13.10
2022-11-09T19:13:55.924Z,13.10
2022-11-09T19:16:42.630Z,13.00
2022-11-09T19:19:29.518Z,13.00
2022-11-09T19:22:19.189Z,13.00
2022-11-09T19:25:07.322Z,13.00
2022-11-09T19:27:53.897Z,13.00
2022-11-09T19:30:42.461Z,13.00
2022-11-09T19:33:29.287Z,13.00
2022-11-09T19:36:30.277Z,13.00
2022-11-09T19:39:18.623Z,13.00
2022-11-09T19:42:05.594Z,13.00
2022-11-09T19:44:56.393Z,13.00
2022-11-09T19:47:45.079Z,13.00
2022-11-09T19:50:31.683Z,13.00
2022-11-09T19:53:19.751Z,13.00
2022-11-09T19:56:09.399Z,13.00
2022-11-09T19:58:59.033Z,13.00
2022-11-09T20:01:45.734Z,13.00
2022-11-09T20:04:34.314Z,13.10
2022-11-09T20:07:21.044Z,13.10
2022-11-09T20:10:09.340Z,13.00
2022-11-09T20:12:56.158Z,12.90
2022-11-09T20:15:42.707Z,12.70
2022-11-09T20:18:29.476Z,12.50
2022-11-09T20:21:17.539Z,12.50
2022-11-09T20:24:04.534Z,12.40
2022-11-09T20:26:51.632Z,12.40
2022-11-09T20:29:38.476Z,12.40
2022-11-09T20:32:26.032Z,12.40
2022-11-09T20:35:12.696Z,12.40
2022-11-09T20:38:00.846Z,12.40
2022-11-09T20:40:55.456Z,12.30
2022-11-09T20:43:42.651Z,12.30
2022-11-09T20:46:35.441Z,12.30
2022-11-09T20:49:23.249Z,12.30
2022-11-09T20:52:10.100Z,12.30
2022-11-09T20:54:58.070Z,12.20
2022-11-09T20:57:44.959Z,12.10
2022-11-09T21:00:33.205Z,12.10
2022-11-09T21:03:21.207Z,12.20
2022-11-09T21:06:09.549Z,12.10
2022-11-09T21:08:57.185Z,12.10
2022-11-09T21:11:58.936Z,12.00
2022-11-09T21:14:45.586Z,12.10
2022-11-09T21:17:32.918Z,12.10
2022-11-09T21:20:20.095Z,12.00
2022-11-09T21:23:24.224Z,12.00
2022-11-09T21:26:28.742Z,12.00
2022-11-09T21:29:38.292Z,11.90
2022-11-09T21:32:25.731Z,11.80
2022-11-09T21:35:12.234Z,11.80
2022-11-09T21:37:59.266Z,11.80
2022-11-09T21:40:46.183Z,11.70
2022-11-09T21:43:32.936Z,11.70
2022-11-09T21:46:21.291Z,11.70
2022-11-09T21:49:10.242Z,11.70
2022-11-09T21:51:56.838Z,11.70
2022-11-09T21:54:43.681Z,11.70
2022-11-09T21:57:30.561Z,11.60
2022-11-09T22:00:18.913Z,11.70
2022-11-09T22:03:06.806Z,11.70
2022-11-09T22:05:53.507Z,11.60
2022-11-09T22:08:40.531Z,11.60
2022-11-09T22:11:43.012Z,11.60
2022-11-09T22:14:47.285Z,11.60
2022-11-09T22:17:34.059Z,11.60
2022-11-09T22:20:39.776Z,11.60
2022-11-09T22:23:26.599Z,11.60
2022-11-09T22:26:13.413Z,11.60
2022-11-09T22:29:00.530Z,11.60
2022-11-09T22:31:47.735Z,11.60
2022-11-09T22:34:34.611Z,11.60
2022-11-09T22:37:22.753Z,11.60
2022-11-09T22:40:11.448Z,11.60
2022-11-09T22:42:58.331Z,11.60
2022-11-09T22:45:45.582Z,11.60
2022-11-09T22:48:32.919Z,11.60
2022-11-09T22:51:20.704Z,11.60
2022-11-09T22:54:09.010Z,11.70
2022-11-09T22:56:55.717Z,11.70
2022-11-09T22:59:42.810Z,11.80
2022-11-09T23:02:30.154Z,11.80
2022-11-09T23:05:17.271Z,11.80
2022-11-09T23:08:04.176Z,11.80
2022-11-09T23:10:56.649Z,11.90
2022-11-09T23:13:44.581Z,11.80
2022-11-09T23:16:31.303Z,11.80
2022-11-09T23:19:17.344Z,11.90
2022-11-09T23:22:04.092Z,11.90
2022-11-09T23:25:08.397Z,12.00
2022-11-09T23:27:56.998Z,12.00
2022-11-09T23:30:43.765Z,11.80
2022-11-09T23:33:30.962Z,11.70
2022-11-09T23:36:17.835Z,11.70
2022-11-09T23:39:04.812Z,11.60
2022-11-09T23:41:51.180Z,11.50
2022-11-09T23:44:39.041Z,11.60
2022-11-09T23:47:25.977Z,11.60
2022-11-09T23:50:12.579Z,11.70
2022-11-09T23:53:01.128Z,11.60
2022-11-09T23:55:47.767Z,11.60
2022-11-09T23:58:34.664Z,11.60
